Time;durP1;ratioP1;P1;durP2;ratioP2;P2;SDS_P1;SDS_P2;PMS_P1;PMS_P2;Temp;Humidity;BMP_temperature;BMP_pressure;BME280_temperature;BME280_humidity;BME280_pressure;Samples;Min_cycle;Max_cycle;Signal;HPM_P1;HPM_P2
2023/07/03 00:01:28;;;;;;;11.27;4.15;;;16.30;99.90;;;;;;4998719;28;20060;-55
2023/07/03 00:03:54;;;;;;;14.90;4.10;;;16.30;99.90;;;;;;4981337;28;20097;-55
2023/07/03 00:06:19;;;;;;;10.75;4.10;;;16.40;99.90;;;;;;5001047;28;20037;-55
2023/07/03 00:08:45;;;;;;;14.45;4.60;;;16.40;99.90;;;;;;4992564;28;20493;-55
2023/07/03 00:11:11;;;;;;;10.75;4.32;;;16.40;99.90;;;;;;4997443;28;20038;-52
2023/07/03 00:13:36;;;;;;;11.98;4.00;;;16.40;99.90;;;;;;4999861;28;20061;-55
2023/07/03 00:16:04;;;;;;;12.15;4.28;;;16.40;99.90;;;;;;5000729;28;20238;-54
2023/07/03 00:18:30;;;;;;;11.05;3.42;;;16.40;99.90;;;;;;4997229;28;20678;-55
2023/07/03 00:20:56;;;;;;;15.40;4.28;;;16.40;99.90;;;;;;5001259;28;20404;-55
2023/07/03 00:23:24;;;;;;;13.40;3.83;;;16.40;99.90;;;;;;4979535;28;20489;-55
2023/07/03 00:25:50;;;;;;;12.20;4.05;;;16.30;99.90;;;;;;4980162;28;20415;-54
2023/07/03 00:28:17;;;;;;;11.00;4.03;;;16.30;99.90;;;;;;5003928;28;20053;-55
2023/07/03 00:30:43;;;;;;;11.82;4.00;;;16.30;99.90;;;;;;5001271;28;20172;-55
2023/07/03 00:33:10;;;;;;;12.57;4.28;;;16.30;99.90;;;;;;5015061;28;21376;-55
2023/07/03 00:35:36;;;;;;;13.75;3.45;;;16.30;99.90;;;;;;4999007;28;20042;-55
2023/07/03 00:38:01;;;;;;;14.40;4.35;;;16.30;99.90;;;;;;4999824;28;20048;-55
2023/07/03 00:40:27;;;;;;;9.05;3.45;;;16.30;99.90;;;;;;4997412;28;20093;-55
2023/07/03 00:42:53;;;;;;;10.85;3.90;;;16.30;99.90;;;;;;4982417;28;20113;-55
2023/07/03 00:45:19;;;;;;;11.85;3.58;;;16.30;99.90;;;;;;4988334;28;20183;-55
2023/07/03 00:47:45;;;;;;;8.98;2.85;;;16.30;99.90;;;;;;4994878;28;20058;-55
2023/07/03 00:50:11;;;;;;;8.02;3.35;;;16.30;99.90;;;;;;5006104;28;20304;-55
2023/07/03 00:52:39;;;;;;;8.70;3.05;;;16.30;99.90;;;;;;4982435;28;20058;-54
2023/07/03 00:55:05;;;;;;;13.52;3.30;;;16.20;99.90;;;;;;4995276;28;20110;-55
2023/07/03 00:57:31;;;;;;;12.70;2.88;;;16.20;99.90;;;;;;4971019;28;20167;-56
2023/07/03 00:59:59;;;;;;;10.82;2.70;;;16.20;99.90;;;;;;4996099;28;20141;-55
2023/07/03 01:02:34;;;;;;;8.85;2.80;;;16.20;99.90;;;;;;4999037;28;20050;-55
2023/07/03 01:05:10;;;;;;;11.20;3.10;;;16.20;99.90;;;;;;4995812;28;20111;-54
2023/07/03 01:07:38;;;;;;;8.98;2.20;;;16.20;99.90;;;;;;5006142;28;20475;-55
2023/07/03 01:10:15;;;;;;;9.57;2.65;;;16.20;99.90;;;;;;4992970;28;20129;-55
2023/07/03 01:12:45;;;;;;;11.48;1.92;;;16.20;99.90;;;;;;4997625;28;20134;-55
2023/07/03 01:15:17;;;;;;;13.52;3.03;;;16.20;99.90;;;;;;4995821;28;20305;-53
2023/07/03 01:17:46;;;;;;;11.82;2.83;;;16.20;99.90;;;;;;4998765;28;20038;-55
2023/07/03 01:20:15;;;;;;;8.55;2.42;;;16.20;99.90;;;;;;4999751;28;20201;-55
2023/07/03 01:22:44;;;;;;;7.40;2.45;;;16.30;99.90;;;;;;4996204;28;20063;-53
2023/07/03 01:25:15;;;;;;;8.98;2.67;;;16.20;99.90;;;;;;4977671;28;20126;-53
2023/07/03 01:27:44;;;;;;;8.35;2.55;;;16.20;99.90;;;;;;4995606;28;20528;-55
2023/07/03 01:30:14;;;;;;;12.05;3.17;;;16.10;99.90;;;;;;4993932;28;20058;-55
2023/07/03 01:32:43;;;;;;;9.38;2.20;;;16.10;99.90;;;;;;4982349;28;20038;-55
2023/07/03 01:35:11;;;;;;;7.82;2.25;;;16.10;99.90;;;;;;4994345;28;20121;-55
2023/07/03 01:37:41;;;;;;;9.50;2.25;;;16.10;99.90;;;;;;5000001;28;20515;-55
2023/07/03 01:40:10;;;;;;;9.30;2.67;;;16.00;99.90;;;;;;5001280;28;20161;-54
2023/07/03 01:42:38;;;;;;;13.13;3.58;;;15.90;99.90;;;;;;4980927;28;20121;-53
2023/07/03 01:45:05;;;;;;;9.13;2.33;;;15.90;99.90;;;;;;5000884;28;20255;-54
2023/07/03 01:47:31;;;;;;;10.60;2.50;;;15.90;99.90;;;;;;5003051;28;20073;-55
2023/07/03 01:49:57;;;;;;;11.32;2.42;;;15.80;99.90;;;;;;5004401;28;20492;-55
2023/07/03 01:52:37;;;;;;;9.65;2.67;;;15.80;99.90;;;;;;5002151;28;20057;-55
2023/07/03 01:55:10;;;;;;;6.40;2.20;;;15.80;99.90;;;;;;4999049;28;20041;-55
2023/07/03 01:57:56;;;;;;;9.60;2.47;;;15.70;99.90;;;;;;4998633;28;20046;-56
2023/07/03 02:00:38;;;;;;;12.57;2.67;;;15.70;99.90;;;;;;5001772;28;20050;-55
2023/07/03 02:03:10;;;;;;;9.35;2.78;;;15.70;99.90;;;;;;4998190;28;20567;-55
2023/07/03 02:05:39;;;;;;;9.17;2.40;;;15.60;99.90;;;;;;4984380;28;20084;-56
2023/07/03 02:08:09;;;;;;;9.50;2.80;;;15.60;99.90;;;;;;4991829;28;20301;-56
2023/07/03 02:10:36;;;;;;;11.05;2.72;;;15.60;99.90;;;;;;5004085;28;20133;-56
2023/07/03 02:13:02;;;;;;;8.70;2.63;;;15.60;99.90;;;;;;4985740;28;20041;-56
2023/07/03 02:15:27;;;;;;;8.48;2.67;;;15.50;99.90;;;;;;5003162;28;20099;-56
2023/07/03 02:17:55;;;;;;;8.93;2.38;;;15.50;99.90;;;;;;4984130;28;20054;-55
2023/07/03 02:20:21;;;;;;;11.13;3.10;;;15.50;99.90;;;;;;4998965;28;20050;-54
2023/07/03 02:22:47;;;;;;;7.15;2.13;;;15.40;99.90;;;;;;5000926;28;20165;-56
2023/07/03 02:25:13;;;;;;;10.30;2.50;;;15.40;99.90;;;;;;4985298;28;20404;-56
2023/07/03 02:27:42;;;;;;;6.90;2.30;;;15.40;99.90;;;;;;4989214;28;20069;-55
2023/07/03 02:30:08;;;;;;;9.27;3.17;;;15.40;99.90;;;;;;4995685;28;20046;-54
2023/07/03 02:32:37;;;;;;;10.98;2.22;;;15.40;99.90;;;;;;5001482;28;20445;-55
2023/07/03 02:35:04;;;;;;;9.10;3.08;;;15.30;99.90;;;;;;5001212;28;20053;-56
2023/07/03 02:37:30;;;;;;;11.27;2.95;;;15.30;99.90;;;;;;4987057;28;20042;-55
2023/07/03 02:39:56;;;;;;;11.02;2.55;;;15.30;99.90;;;;;;5020403;28;20111;-53
2023/07/03 02:42:22;;;;;;;11.40;2.70;;;15.30;99.90;;;;;;5002426;28;20037;-56
2023/07/03 02:44:48;;;;;;;8.55;2.40;;;15.30;99.90;;;;;;4997869;28;20511;-56
2023/07/03 02:47:14;;;;;;;11.13;2.42;;;15.30;99.90;;;;;;4997028;28;20045;-56
2023/07/03 02:49:41;;;;;;;8.32;2.70;;;15.20;99.90;;;;;;4980878;28;20066;-55
2023/07/03 02:52:08;;;;;;;9.43;2.50;;;15.30;99.90;;;;;;4998395;28;20046;-55
2023/07/03 02:54:33;;;;;;;11.43;2.58;;;15.20;99.90;;;;;;4999355;28;20053;-56
2023/07/03 02:56:59;;;;;;;12.90;2.78;;;15.20;99.90;;;;;;4998106;28;20037;-55
2023/07/03 02:59:25;;;;;;;14.90;3.00;;;15.20;99.90;;;;;;4999617;28;20034;-55
2023/07/03 03:01:51;;;;;;;8.20;2.08;;;15.20;99.90;;;;;;4987704;28;20080;-56
2023/07/03 03:04:17;;;;;;;9.50;2.38;;;15.10;99.90;;;;;;4982060;28;20049;-55
2023/07/03 03:06:43;;;;;;;11.55;2.70;;;15.10;99.90;;;;;;4988209;28;20046;-55
2023/07/03 03:09:09;;;;;;;10.20;2.60;;;15.10;99.90;;;;;;4997336;28;20038;-55
2023/07/03 03:11:36;;;;;;;12.07;3.60;;;15.00;99.90;;;;;;4998977;28;20099;-53
2023/07/03 03:14:02;;;;;;;11.50;2.70;;;15.00;99.90;;;;;;4986344;28;20049;-55
2023/07/03 03:16:28;;;;;;;10.25;2.40;;;15.00;99.90;;;;;;5002634;28;20138;-55
2023/07/03 03:18:53;;;;;;;11.73;3.20;;;15.00;99.90;;;;;;5003551;28;20132;-54
2023/07/03 03:21:19;;;;;;;14.60;2.67;;;15.00;99.90;;;;;;4983421;28;20050;-56
2023/07/03 03:23:46;;;;;;;11.90;2.67;;;14.90;99.90;;;;;;5000452;28;20038;-55
2023/07/03 03:26:12;;;;;;;7.75;2.22;;;14.90;99.90;;;;;;5000111;28;20053;-56
2023/07/03 03:28:38;;;;;;;11.57;2.85;;;14.90;99.90;;;;;;5002880;28;20117;-59
2023/07/03 03:31:04;;;;;;;11.35;2.65;;;14.90;99.90;;;;;;5000784;28;20124;-55
2023/07/03 03:33:30;;;;;;;16.55;3.22;;;14.90;99.90;;;;;;4994704;28;20641;-55
2023/07/03 03:35:56;;;;;;;11.98;2.85;;;14.80;99.90;;;;;;4995608;28;20038;-56
2023/07/03 03:38:21;;;;;;;11.68;2.72;;;14.80;99.90;;;;;;4998691;28;20046;-56
2023/07/03 03:41:03;;;;;;;8.23;2.40;;;14.80;99.90;;;;;;4985311;28;20038;-56
2023/07/03 03:43:29;;;;;;;7.22;2.35;;;14.80;99.90;;;;;;5005392;28;20038;-56
2023/07/03 03:45:56;;;;;;;7.47;2.28;;;14.80;99.90;;;;;;5003190;28;20542;-56
2023/07/03 03:48:22;;;;;;;12.88;3.03;;;14.80;99.90;;;;;;5012309;28;20050;-55
2023/07/03 03:50:49;;;;;;;12.20;2.30;;;14.80;99.90;;;;;;5000326;28;20072;-55
2023/07/03 03:53:15;;;;;;;11.10;2.30;;;14.80;99.90;;;;;;5000795;28;20114;-55
2023/07/03 03:55:41;;;;;;;18.38;3.05;;;14.80;99.90;;;;;;5004442;28;20433;-55
2023/07/03 03:58:08;;;;;;;11.73;2.95;;;14.80;99.90;;;;;;4999093;28;20092;-54
2023/07/03 04:00:35;;;;;;;10.73;3.08;;;14.80;99.90;;;;;;4996864;28;20045;-53
2023/07/03 04:03:00;;;;;;;16.75;2.90;;;14.80;99.90;;;;;;5003253;28;20513;-56
2023/07/03 04:05:26;;;;;;;13.93;3.00;;;14.80;99.90;;;;;;4998585;28;20081;-56
2023/07/03 04:07:52;;;;;;;9.55;1.92;;;14.70;99.90;;;;;;4984546;28;20425;-55
2023/07/03 04:10:17;;;;;;;12.50;2.92;;;14.70;99.90;;;;;;5004246;28;20041;-56
2023/07/03 04:12:43;;;;;;;10.38;2.63;;;14.80;99.90;;;;;;4983420;28;20405;-56
2023/07/03 04:15:09;;;;;;;9.10;2.55;;;14.80;99.90;;;;;;4984235;28;20053;-55
2023/07/03 04:17:35;;;;;;;11.85;2.95;;;14.90;99.90;;;;;;4995544;28;20042;-56
2023/07/03 04:20:00;;;;;;;12.60;2.40;;;15.00;99.90;;;;;;5002257;28;20564;-59
2023/07/03 04:22:26;;;;;;;7.03;2.30;;;15.00;99.90;;;;;;4996174;28;20041;-56
2023/07/03 04:24:53;;;;;;;13.20;2.60;;;15.00;99.90;;;;;;4998037;28;20673;-56
2023/07/03 04:27:19;;;;;;;10.98;2.88;;;15.10;99.90;;;;;;5000532;28;20054;-54
2023/07/03 04:29:45;;;;;;;12.75;2.60;;;15.10;99.90;;;;;;4994455;28;20069;-55
2023/07/03 04:32:10;;;;;;;19.58;3.88;;;15.10;99.90;;;;;;5002193;28;20046;-55
2023/07/03 04:34:36;;;;;;;8.35;2.47;;;15.10;99.90;;;;;;5003611;28;20030;-55
2023/07/03 04:37:03;;;;;;;14.10;2.70;;;15.10;99.90;;;;;;4995018;28;20045;-55
2023/07/03 04:39:31;;;;;;;13.60;2.95;;;15.10;99.90;;;;;;5020515;28;20061;-54
2023/07/03 04:42:00;;;;;;;8.23;2.97;;;15.20;99.90;;;;;;5004941;28;20045;-54
2023/07/03 04:44:26;;;;;;;10.75;2.13;;;15.20;99.90;;;;;;5002218;28;20046;-55
2023/07/03 04:46:55;;;;;;;13.13;2.47;;;15.30;99.90;;;;;;4982252;28;20117;-54
2023/07/03 04:49:26;;;;;;;12.73;2.72;;;15.30;99.90;;;;;;5000343;28;20054;-54
2023/07/03 04:51:52;;;;;;;13.75;2.53;;;15.30;99.90;;;;;;4992973;28;20054;-54
2023/07/03 04:54:19;;;;;;;12.70;2.60;;;15.30;99.90;;;;;;4995007;28;20049;-55
2023/07/03 04:56:46;;;;;;;12.45;2.50;;;15.30;99.90;;;;;;5001586;28;20108;-54
2023/07/03 04:59:12;;;;;;;14.73;3.22;;;15.30;99.90;;;;;;4984076;28;20053;-54
2023/07/03 05:01:42;;;;;;;11.60;3.25;;;15.30;99.90;;;;;;5001971;28;20432;-53
2023/07/03 05:04:09;;;;;;;12.63;2.88;;;15.40;99.90;;;;;;4984625;28;20038;-54
2023/07/03 05:06:35;;;;;;;9.57;2.30;;;15.30;99.90;;;;;;5000826;28;20034;-55
2023/07/03 05:09:01;;;;;;;12.77;2.38;;;15.10;99.90;;;;;;4996204;28;20038;-54
2023/07/03 05:11:27;;;;;;;11.15;2.28;;;15.00;99.90;;;;;;5000320;28;20040;-52
2023/07/03 05:13:53;;;;;;;11.95;2.83;;;15.00;99.90;;;;;;4984249;28;20137;-53
2023/07/03 05:16:18;;;;;;;11.77;3.63;;;15.00;99.90;;;;;;5000229;28;20066;-55
2023/07/03 05:18:44;;;;;;;11.60;2.92;;;15.00;99.90;;;;;;4983406;28;20038;-54
2023/07/03 05:21:10;;;;;;;14.90;3.03;;;15.00;99.90;;;;;;5006462;28;20503;-53
2023/07/03 05:23:36;;;;;;;16.02;3.05;;;15.00;99.90;;;;;;5014329;28;20546;-55
2023/07/03 05:26:02;;;;;;;11.90;2.47;;;15.00;99.90;;;;;;5001263;28;20116;-56
2023/07/03 05:28:29;;;;;;;11.57;2.72;;;15.10;99.90;;;;;;5007393;28;20084;-54
2023/07/03 05:30:56;;;;;;;9.40;2.40;;;15.10;99.90;;;;;;5004591;28;20111;-55
2023/07/03 05:33:22;;;;;;;14.45;3.20;;;15.20;99.90;;;;;;4997498;28;20045;-54
2023/07/03 05:35:48;;;;;;;7.90;2.40;;;15.30;99.90;;;;;;4998151;28;20046;-53
2023/07/03 05:38:14;;;;;;;11.73;2.67;;;15.30;99.90;;;;;;5000364;28;20516;-56
2023/07/03 05:40:39;;;;;;;10.07;2.38;;;15.50;99.90;;;;;;5000239;28;20038;-54
2023/07/03 05:43:05;;;;;;;8.52;2.30;;;15.50;99.90;;;;;;5003727;28;20109;-52
2023/07/03 05:45:31;;;;;;;7.90;2.25;;;15.60;99.90;;;;;;4999568;28;20046;-54
2023/07/03 05:47:56;;;;;;;7.53;1.92;;;15.70;99.90;;;;;;5001915;28;20045;-54
2023/07/03 05:50:22;;;;;;;8.82;2.08;;;15.90;99.90;;;;;;5005357;28;20077;-53
2023/07/03 05:52:48;;;;;;;9.77;1.98;;;16.00;99.90;;;;;;5002526;28;20335;-54
2023/07/03 05:55:14;;;;;;;8.50;1.85;;;16.10;99.90;;;;;;5002030;28;20141;-55
2023/07/03 05:57:40;;;;;;;7.00;1.85;;;16.20;99.90;;;;;;5001899;28;20343;-54
2023/07/03 06:00:13;;;;;;;15.45;2.50;;;16.40;99.90;;;;;;4982945;28;20042;-55
2023/07/03 06:02:43;;;;;;;12.40;2.37;;;16.40;99.90;;;;;;4997588;28;20044;-56
2023/07/03 06:05:11;;;;;;;12.05;3.10;;;16.10;99.90;;;;;;5000201;28;20030;-54
2023/07/03 06:07:37;;;;;;;9.60;1.92;;;15.90;99.90;;;;;;4989784;28;20119;-52
2023/07/03 06:10:04;;;;;;;11.55;2.63;;;15.70;99.90;;;;;;4986704;28;20044;-54
2023/07/03 06:12:30;;;;;;;10.50;2.75;;;15.70;99.90;;;;;;4983047;28;20052;-53
2023/07/03 06:15:01;;;;;;;10.07;2.63;;;15.60;99.90;;;;;;4967252;28;20413;-53
2023/07/03 06:17:29;;;;;;;12.10;2.63;;;15.50;99.90;;;;;;4999730;28;20081;-55
2023/07/03 06:19:55;;;;;;;12.18;3.25;;;15.50;99.90;;;;;;4999990;28;20050;-52
2023/07/03 06:22:21;;;;;;;11.40;2.42;;;15.30;99.90;;;;;;4999815;28;20120;-54
2023/07/03 06:24:47;;;;;;;8.23;2.17;;;15.30;99.90;;;;;;4997480;28;20038;-54
2023/07/03 06:27:13;;;;;;;13.05;2.92;;;15.20;99.90;;;;;;4988776;28;20049;-55
2023/07/03 06:29:40;;;;;;;13.75;3.15;;;15.20;99.90;;;;;;5001800;28;20133;-54
2023/07/03 06:32:06;;;;;;;13.50;2.72;;;15.30;99.90;;;;;;4981460;28;20038;-53
2023/07/03 06:34:32;;;;;;;9.57;2.38;;;15.20;99.90;;;;;;5002543;28;20042;-54
2023/07/03 06:37:00;;;;;;;8.10;3.20;;;15.30;99.90;;;;;;4997328;28;20356;-55
2023/07/03 06:39:26;;;;;;;11.02;2.70;;;15.40;99.90;;;;;;4996835;28;20084;-54
2023/07/03 06:41:52;;;;;;;8.05;2.13;;;15.50;99.90;;;;;;4998257;28;20053;-51
2023/07/03 06:44:19;;;;;;;10.45;2.85;;;15.60;99.90;;;;;;5005388;28;20049;-54
2023/07/03 06:46:45;;;;;;;5.13;1.80;;;15.70;99.90;;;;;;5014520;28;20493;-53
2023/07/03 06:49:12;;;;;;;9.20;2.20;;;16.00;99.90;;;;;;4965865;28;20088;-55
2023/07/03 06:51:38;;;;;;;15.18;2.42;;;16.20;99.90;;;;;;4983203;28;20046;-54
2023/07/03 06:54:03;;;;;;;10.85;2.17;;;16.40;99.90;;;;;;4995548;28;20496;-54
2023/07/03 06:56:29;;;;;;;11.77;2.28;;;16.50;99.90;;;;;;4980257;28;20041;-54
2023/07/03 06:58:55;;;;;;;10.48;2.67;;;16.50;99.90;;;;;;4997028;28;20140;-55
2023/07/03 07:01:24;;;;;;;10.25;2.35;;;16.60;99.90;;;;;;4993594;28;20050;-55
2023/07/03 07:03:50;;;;;;;9.98;1.85;;;16.60;99.90;;;;;;4995211;28;20042;-56
2023/07/03 07:06:24;;;;;;;13.27;2.28;;;16.40;99.90;;;;;;4990950;28;20042;-54
2023/07/03 07:08:50;;;;;;;8.95;1.90;;;16.30;99.90;;;;;;4999007;28;20036;-55
2023/07/03 07:11:24;;;;;;;10.82;2.13;;;16.30;99.90;;;;;;5004367;28;20033;-56
2023/07/03 07:13:51;;;;;;;9.75;2.10;;;16.30;99.90;;;;;;4998342;28;20073;-54
2023/07/03 07:16:18;;;;;;;10.50;1.88;;;16.20;99.90;;;;;;4994322;28;20054;-54
2023/07/03 07:18:47;;;;;;;10.57;2.10;;;16.10;99.90;;;;;;4999764;28;20042;-55
2023/07/03 07:21:13;;;;;;;9.45;1.80;;;16.10;99.90;;;;;;4999276;28;20045;-54
2023/07/03 07:23:39;;;;;;;6.07;1.90;;;16.10;99.90;;;;;;4996485;28;20462;-56
2023/07/03 07:26:04;;;;;;;9.13;2.45;;;16.20;99.90;;;;;;4997357;28;20026;-56
2023/07/03 07:28:30;;;;;;;8.18;1.63;;;16.30;99.90;;;;;;4997993;28;20034;-56
2023/07/03 07:30:56;;;;;;;9.85;1.85;;;16.50;99.90;;;;;;4995447;28;20066;-57
2023/07/03 07:33:22;;;;;;;7.38;1.48;;;16.70;99.90;;;;;;4977004;28;20041;-55
2023/07/03 07:35:50;;;;;;;7.68;1.83;;;16.70;99.90;;;;;;5012322;28;20041;-53
2023/07/03 07:38:16;;;;;;;5.90;1.50;;;16.90;99.90;;;;;;4997797;28;20552;-57
2023/07/03 07:40:43;;;;;;;7.47;1.70;;;17.10;99.90;;;;;;4982249;28;20038;-57
2023/07/03 07:43:09;;;;;;;7.03;1.48;;;17.00;99.90;;;;;;5001383;28;20069;-54
2023/07/03 07:45:34;;;;;;;7.80;1.65;;;17.20;99.90;;;;;;5002344;28;20065;-56
2023/07/03 07:48:00;;;;;;;7.18;1.77;;;17.20;99.90;;;;;;4997629;28;20401;-56
2023/07/03 07:50:27;;;;;;;10.77;2.10;;;17.20;99.90;;;;;;4996237;28;20046;-54
2023/07/03 07:52:53;;;;;;;8.07;1.88;;;17.30;99.90;;;;;;4996547;28;20173;-57
2023/07/03 07:55:26;;;;;;;6.82;2.03;;;17.50;99.90;;;;;;5097543;27;20433;-61
2023/07/03 07:57:52;;;;;;;7.30;2.03;;;17.70;99.90;;;;;;5104019;28;20071;-62
2023/07/03 08:00:19;;;;;;;9.23;1.60;;;17.70;99.90;;;;;;5102933;28;20097;-62
2023/07/03 08:02:45;;;;;;;10.02;1.50;;;17.80;99.90;;;;;;5093385;28;20044;-62
2023/07/03 08:05:11;;;;;;;4.75;1.40;;;17.90;99.90;;;;;;5088026;28;20061;-63
2023/07/03 08:07:37;;;;;;;9.18;2.08;;;17.80;99.90;;;;;;5092463;28;20044;-63
2023/07/03 08:10:03;;;;;;;9.80;1.95;;;17.40;99.90;;;;;;5094200;28;20063;-60
2023/07/03 08:12:28;;;;;;;7.65;1.38;;;17.30;99.90;;;;;;5093820;28;20044;-62
2023/07/03 08:14:54;;;;;;;9.00;1.73;;;17.50;99.90;;;;;;5093905;28;20521;-62
2023/07/03 08:17:20;;;;;;;4.70;1.65;;;17.60;99.90;;;;;;5058792;28;20040;-62
2023/07/03 08:19:46;;;;;;;8.10;1.70;;;17.60;99.90;;;;;;5069964;28;20505;-61
2023/07/03 08:22:12;;;;;;;6.38;1.83;;;17.70;99.90;;;;;;5089363;28;20036;-62
2023/07/03 08:24:37;;;;;;;7.85;2.17;;;17.50;99.90;;;;;;5092561;28;20525;-62
2023/07/03 08:27:03;;;;;;;7.20;1.52;;;17.50;99.90;;;;;;5089698;28;20032;-62
2023/07/03 08:29:29;;;;;;;6.05;1.60;;;17.20;99.90;;;;;;5092890;28;20090;-61
2023/07/03 08:31:55;;;;;;;9.73;2.13;;;17.20;99.90;;;;;;5089744;28;20044;-62
2023/07/03 08:34:20;;;;;;;10.77;1.77;;;17.00;99.90;;;;;;5089183;28;20461;-62
2023/07/03 08:36:46;;;;;;;7.50;1.70;;;16.80;99.90;;;;;;5068175;28;20033;-61
2023/07/03 08:39:12;;;;;;;7.88;1.98;;;16.60;99.90;;;;;;5094847;28;20131;-62
2023/07/03 08:41:50;;;;;;;10.45;1.88;;;16.50;99.90;;;;;;5090988;28;20047;-62
2023/07/03 08:44:16;;;;;;;11.70;2.25;;;16.50;99.90;;;;;;5090469;28;20056;-61
2023/07/03 08:46:43;;;;;;;10.15;2.20;;;16.50;99.90;;;;;;5090432;28;20043;-62
2023/07/03 08:49:13;;;;;;;4.60;1.83;;;16.70;99.90;;;;;;5060969;28;20048;-61
2023/07/03 08:51:39;;;;;;;7.82;1.67;;;16.60;99.90;;;;;;5096161;28;20117;-61
2023/07/03 08:54:20;;;;;;;6.60;2.25;;;16.70;99.90;;;;;;5097707;28;20072;-62
2023/07/03 08:56:48;;;;;;;4.13;1.23;;;16.80;99.90;;;;;;5090954;28;20032;-62
2023/07/03 08:59:14;;;;;;;4.80;1.50;;;16.80;99.90;;;;;;5091385;28;20075;-62
2023/07/03 09:01:53;;;;;;;8.65;1.75;;;16.90;99.90;;;;;;5089739;28;20116;-62
2023/07/03 09:04:38;;;;;;;9.52;1.70;;;17.10;99.90;;;;;;5092562;28;20089;-62
2023/07/03 09:07:29;;;;;;;7.13;1.80;;;17.20;99.90;;;;;;5057726;28;20044;-62
2023/07/03 09:10:04;;;;;;;7.43;1.83;;;17.30;99.90;;;;;;5075237;28;20112;-62
2023/07/03 09:12:46;;;;;;;8.98;1.70;;;17.30;99.90;;;;;;5070879;28;20051;-62
2023/07/03 09:15:33;;;;;;;6.97;1.80;;;17.30;99.90;;;;;;5086003;28;20040;-62
2023/07/03 09:18:02;;;;;;;9.60;1.80;;;17.40;99.90;;;;;;5080064;28;20046;-62
2023/07/03 09:20:30;;;;;;;7.88;1.70;;;17.40;99.90;;;;;;5077794;28;20040;-62
2023/07/03 09:23:20;;;;;;;9.32;1.70;;;17.40;99.90;;;;;;5057649;28;20036;-61
2023/07/03 09:26:09;;;;;;;9.07;1.50;;;17.30;99.90;;;;;;5092333;28;20047;-62
2023/07/03 09:28:39;;;;;;;6.68;1.55;;;17.40;99.90;;;;;;5076640;28;20045;-62
2023/07/03 09:31:05;;;;;;;5.65;1.33;;;17.50;99.90;;;;;;5079499;28;20059;-62
2023/07/03 09:33:30;;;;;;;7.47;1.60;;;17.50;99.90;;;;;;5078286;28;20514;-59
2023/07/03 09:36:03;;;;;;;8.88;1.92;;;17.60;99.90;;;;;;5077403;28;20513;-62
2023/07/03 09:38:29;;;;;;;8.07;1.40;;;17.60;99.90;;;;;;5080292;28;20499;-62
2023/07/03 09:40:55;;;;;;;7.05;1.55;;;17.70;99.90;;;;;;5075942;28;20037;-62
2023/07/03 09:43:25;;;;;;;7.18;1.27;;;17.90;99.90;;;;;;5080509;28;20068;-62
2023/07/03 09:46:01;;;;;;;7.40;1.58;;;18.00;99.90;;;;;;5082020;28;20036;-63
2023/07/03 09:48:30;;;;;;;6.93;2.47;;;18.10;99.90;;;;;;5072139;28;20040;-62
2023/07/03 09:50:56;;;;;;;6.72;1.80;;;18.10;99.90;;;;;;5082413;28;20051;-61
2023/07/03 09:53:26;;;;;;;12.00;1.92;;;18.00;99.90;;;;;;5059280;28;20063;-62
2023/07/03 09:55:54;;;;;;;4.55;1.33;;;17.80;99.90;;;;;;5070291;28;20068;-62
2023/07/03 09:58:24;;;;;;;7.65;1.77;;;17.80;99.90;;;;;;5074050;28;20044;-62
2023/07/03 10:00:56;;;;;;;9.23;1.52;;;17.70;99.90;;;;;;5077260;28;20052;-62
2023/07/03 10:03:30;;;;;;;5.93;2.10;;;17.70;99.90;;;;;;5059005;28;20041;-62
2023/07/03 10:06:18;;;;;;;4.20;1.55;;;17.60;99.90;;;;;;5060491;28;20040;-62
2023/07/03 10:08:58;;;;;;;7.65;2.05;;;17.50;99.90;;;;;;5070142;28;20392;-62
2023/07/03 10:11:57;;;;;;;6.10;1.60;;;17.50;99.90;;;;;;5075649;28;20048;-63
2023/07/03 10:14:31;;;;;;;7.68;1.60;;;17.40;99.90;;;;;;5059975;28;20056;-62
2023/07/03 10:17:00;;;;;;;5.72;1.50;;;17.40;99.90;;;;;;5066969;28;20130;-62
2023/07/03 10:19:27;;;;;;;12.00;2.70;;;17.60;99.90;;;;;;5065186;28;20067;-62
2023/07/03 10:21:53;;;;;;;7.88;2.13;;;17.70;99.90;;;;;;5071762;28;20036;-63
2023/07/03 10:24:20;;;;;;;7.40;2.25;;;17.70;99.90;;;;;;5067504;28;20131;-61
2023/07/03 10:26:50;;;;;;;9.98;2.13;;;17.90;99.90;;;;;;5053566;28;20115;-61
2023/07/03 10:29:23;;;;;;;10.30;1.95;;;17.90;99.90;;;;;;5071605;28;20052;-62
2023/07/03 10:32:03;;;;;;;9.85;2.38;;;17.90;99.90;;;;;;5075439;28;20522;-62
2023/07/03 10:34:47;;;;;;;7.15;1.90;;;17.80;99.90;;;;;;5073501;28;20051;-62
2023/07/03 10:37:17;;;;;;;5.65;1.58;;;18.10;99.90;;;;;;5073943;28;20032;-62
2023/07/03 10:40:15;;;;;;;5.53;1.20;;;18.30;99.90;;;;;;5074656;28;20119;-62
2023/07/03 10:43:08;;;;;;;3.22;0.90;;;18.20;99.00;;;;;;5054510;28;20036;-62
2023/07/03 10:45:37;;;;;;;4.90;1.35;;;18.30;99.00;;;;;;5072098;28;20063;-60
2023/07/03 10:48:10;;;;;;;7.18;1.67;;;18.10;99.00;;;;;;5077366;28;20048;-62
2023/07/03 10:51:19;;;;;;;6.72;1.85;;;18.10;98.70;;;;;;5076488;28;20040;-60
2023/07/03 10:53:56;;;;;;;5.78;1.27;;;18.20;98.70;;;;;;5048516;28;20108;-62
2023/07/03 10:56:48;;;;;;;5.93;1.42;;;18.30;98.60;;;;;;5074192;28;20056;-61
2023/07/03 10:59:22;;;;;;;4.43;1.20;;;18.20;98.10;;;;;;5072734;28;20588;-59
2023/07/03 11:01:54;;;;;;;6.00;1.50;;;18.10;98.00;;;;;;5076736;28;20054;-62
2023/07/03 11:04:58;;;;;;;8.23;1.65;;;17.80;97.80;;;;;;5072489;28;20584;-62
2023/07/03 11:07:45;;;;;;;5.07;1.23;;;17.80;98.50;;;;;;5022986;28;20459;-62
2023/07/03 11:10:17;;;;;;;7.30;1.60;;;17.90;98.90;;;;;;5022031;28;20118;-62
2023/07/03 11:12:47;;;;;;;5.00;1.40;;;17.90;98.90;;;;;;5050614;28;20461;-61
2023/07/03 11:15:13;;;;;;;6.57;1.58;;;17.90;98.30;;;;;;5077067;28;20047;-61
2023/07/03 11:17:41;;;;;;;5.70;1.42;;;18.00;98.30;;;;;;5074848;28;20032;-60
2023/07/03 11:20:22;;;;;;;5.43;1.58;;;18.00;98.30;;;;;;5082149;28;20040;-62
2023/07/03 11:22:52;;;;;;;4.00;1.60;;;18.00;98.10;;;;;;5075156;28;20032;-61
2023/07/03 11:25:24;;;;;;;8.00;1.20;;;18.10;98.70;;;;;;5096428;22;20062;31
2023/07/03 11:28:18;;;;;;;3.65;1.10;;;18.10;98.50;;;;;;4984982;28;20046;-59
2023/07/03 11:30:44;;;;;;;;;;;18.10;98.40;;;;;;4993693;28;20039;-59
2023/07/03 11:33:13;;;;;;;4.82;1.27;;;18.10;97.50;;;;;;4985768;28;20549;-59
2023/07/03 11:35:51;;;;;;;6.40;1.10;;;18.20;98.20;;;;;;4969758;28;20049;-60
2023/07/03 11:38:18;;;;;;;5.68;1.30;;;18.20;97.10;;;;;;4981680;22;20053;-59
2023/07/03 11:40:56;;;;;;;6.07;1.42;;;18.20;97.30;;;;;;5055563;28;20060;-59
2023/07/03 11:43:42;;;;;;;5.82;1.55;;;18.30;97.40;;;;;;5045256;28;20098;-59
2023/07/03 11:46:24;;;;;;;5.25;1.35;;;18.30;97.30;;;;;;5037347;28;20451;-59
2023/07/03 11:48:57;;;;;;;7.85;1.98;;;18.20;97.10;;;;;;5042044;28;20478;-59
2023/07/03 11:51:35;;;;;;;5.85;1.30;;;18.20;97.40;;;;;;5040440;28;20057;-59
2023/07/03 11:54:17;;;;;;;5.90;1.48;;;18.20;97.60;;;;;;5040865;28;20103;-59
2023/07/03 11:56:49;;;;;;;7.32;1.65;;;18.20;97.80;;;;;;5039461;28;20053;-58
2023/07/03 11:59:22;;;;;;;7.18;1.85;;;18.20;97.90;;;;;;5038089;28;20044;-58
2023/07/03 12:01:49;;;;;;;;;;;18.20;97.70;;;;;;5041145;28;20077;-58
2023/07/03 12:04:40;;;;;;;7.90;1.58;;;18.20;97.90;;;;;;5034104;28;20451;-58
2023/07/03 12:07:06;;;;;;;3.75;1.08;;;18.30;97.60;;;;;;5038749;28;20508;-58
2023/07/03 12:09:31;;;;;;;8.50;1.65;;;18.50;96.20;;;;;;5037349;28;20175;-58
2023/07/03 12:12:00;;;;;;;3.88;1.27;;;18.80;96.50;;;;;;5043904;28;20373;-58
2023/07/03 12:14:42;;;;;;;3.97;1.33;;;19.00;96.10;;;;;;5031528;28;20067;-58
2023/07/03 12:17:22;;;;;;;7.03;1.70;;;18.90;95.50;;;;;;5041716;28;20556;-58
2023/07/03 12:19:49;;;;;;;6.78;1.70;;;18.80;95.20;;;;;;5055293;28;20088;-60
2023/07/03 12:22:19;;;;;;;4.43;1.20;;;18.90;95.70;;;;;;5038928;28;20171;-58
2023/07/03 12:24:45;;;;;;;7.03;1.40;;;19.20;95.50;;;;;;5050659;28;20484;-57
2023/07/03 12:27:11;;;;;;;6.00;1.48;;;19.60;95.20;;;;;;5035025;28;20072;-58
2023/07/03 12:29:48;;;;;;;6.45;1.77;;;19.60;95.00;;;;;;5038379;28;20175;-58
2023/07/03 12:32:26;;;;;;;3.83;1.13;;;19.40;94.90;;;;;;5037733;28;20048;-57
2023/07/03 12:34:52;;;;;;;7.78;1.88;;;19.20;93.90;;;;;;5023401;28;22938;-59
2023/07/03 12:37:24;;;;;;;6.00;1.40;;;19.10;94.50;;;;;;5040603;28;20037;-58
2023/07/03 12:39:51;;;;;;;6.63;1.40;;;19.10;94.50;;;;;;5036769;28;20103;-57
2023/07/03 12:42:24;;;;;;;4.10;1.20;;;19.20;94.50;;;;;;5041985;28;20368;-58
2023/07/03 12:44:51;;;;;;;7.32;1.42;;;19.20;94.50;;;;;;5047729;28;20048;-57
2023/07/03 12:47:19;;;;;;;5.05;1.92;;;19.20;94.40;;;;;;5046067;28;20037;-58
2023/07/03 12:50:04;;;;;;;6.65;1.50;;;19.40;94.60;;;;;;5044157;28;20048;-58
2023/07/03 12:52:32;;;;;;;8.57;1.73;;;19.80;94.60;;;;;;5044942;28;20488;-59
2023/07/03 12:55:00;;;;;;;4.50;1.20;;;20.00;94.30;;;;;;5044066;28;20436;-59